Brighton, Michigan
Current Conditions -  °F | °C
As of 12:35 AM on Sunday 21 Dec 2014 (Local Time) from KOZW Reporting Station
Broken Clouds Broken Clouds  
Wind Chill: 23°   Ceiling: 7000
Heat Index: 23°   Visibility: 7mi
Dew Point: 20°   Wind: 0mph
Humidity: 90%   Direction: NA
Pressure: 30.26"   Gusts: NA
Location:  42.53°N, 83.78°W
Report Text: KOZW 210535Z AUTO 00000KT 7SM BKN070 M05/M06 A3026 RMK AO2 T10511065
Loading
Personal Weather Stations






























Interactive Weather Map New forecast layout! Learn more

10-Day Weather Forecast

Advertisements
Track Severe Weather on mobile